sensor_id;sensor_type;location;lat;lon;timestamp;P1;durP1;ratioP1;P2;durP2;ratioP2
21729;SDS011;11027;51.030;13.812;2022-08-19T00:01:29;9.05;;;8.15;;
21729;SDS011;11027;51.030;13.812;2022-08-19T00:03:56;9.30;;;8.32;;
21729;SDS011;11027;51.030;13.812;2022-08-19T00:06:22;11.63;;;9.20;;
21729;SDS011;11027;51.030;13.812;2022-08-19T00:08:47;10.75;;;8.85;;
21729;SDS011;11027;51.030;13.812;2022-08-19T00:11:13;11.43;;;9.18;;
21729;SDS011;11027;51.030;13.812;2022-08-19T00:13:39;12.55;;;9.82;;
21729;SDS011;11027;51.030;13.812;2022-08-19T00:16:05;10.90;;;9.80;;
21729;SDS011;11027;51.030;13.812;2022-08-19T00:18:31;13.20;;;10.77;;
21729;SDS011;11027;51.030;13.812;2022-08-19T00:20:58;11.90;;;10.00;;
21729;SDS011;11027;51.030;13.812;2022-08-19T00:23:24;13.05;;;9.75;;
21729;SDS011;11027;51.030;13.812;2022-08-19T00:25:50;15.38;;;10.63;;
21729;SDS011;11027;51.030;13.812;2022-08-19T00:28:15;16.00;;;11.80;;
21729;SDS011;11027;51.030;13.812;2022-08-19T00:30:41;14.18;;;11.15;;
21729;SDS011;11027;51.030;13.812;2022-08-19T00:33:06;12.18;;;10.98;;
21729;SDS011;11027;51.030;13.812;2022-08-19T00:35:33;16.58;;;11.32;;
21729;SDS011;11027;51.030;13.812;2022-08-19T00:37:58;16.50;;;11.43;;
21729;SDS011;11027;51.030;13.812;2022-08-19T00:40:24;16.02;;;11.40;;
21729;SDS011;11027;51.030;13.812;2022-08-19T00:42:50;15.23;;;11.55;;
21729;SDS011;11027;51.030;13.812;2022-08-19T00:45:19;14.65;;;11.32;;
21729;SDS011;11027;51.030;13.812;2022-08-19T00:47:46;14.00;;;12.13;;
21729;SDS011;11027;51.030;13.812;2022-08-19T00:50:12;12.32;;;10.70;;
21729;SDS011;11027;51.030;13.812;2022-08-19T00:52:42;13.27;;;11.07;;
21729;SDS011;11027;51.030;13.812;2022-08-19T00:55:18;13.88;;;11.52;;
21729;SDS011;11027;51.030;13.812;2022-08-19T00:57:47;12.65;;;11.35;;
21729;SDS011;11027;51.030;13.812;2022-08-19T01:00:18;14.68;;;11.70;;
21729;SDS011;11027;51.030;13.812;2022-08-19T01:02:44;13.43;;;11.57;;
21729;SDS011;11027;51.030;13.812;2022-08-19T01:05:13;14.93;;;11.25;;
21729;SDS011;11027;51.030;13.812;2022-08-19T01:07:41;12.63;;;11.35;;
21729;SDS011;11027;51.030;13.812;2022-08-19T01:10:07;12.75;;;11.50;;
21729;SDS011;11027;51.030;13.812;2022-08-19T01:12:35;13.13;;;11.73;;
21729;SDS011;11027;51.030;13.812;2022-08-19T01:15:01;13.32;;;12.13;;
21729;SDS011;11027;51.030;13.812;2022-08-19T01:17:27;13.18;;;11.88;;
21729;SDS011;11027;51.030;13.812;2022-08-19T01:19:52;14.15;;;11.43;;
21729;SDS011;11027;51.030;13.812;2022-08-19T01:22:19;14.13;;;12.38;;
21729;SDS011;11027;51.030;13.812;2022-08-19T01:24:49;14.10;;;12.18;;
21729;SDS011;11027;51.030;13.812;2022-08-19T01:27:15;13.40;;;12.10;;
21729;SDS011;11027;51.030;13.812;2022-08-19T01:29:42;14.02;;;12.63;;
21729;SDS011;11027;51.030;13.812;2022-08-19T01:32:10;15.55;;;13.20;;
21729;SDS011;11027;51.030;13.812;2022-08-19T01:34:38;13.75;;;12.45;;
21729;SDS011;11027;51.030;13.812;2022-08-19T01:37:08;14.30;;;12.82;;
21729;SDS011;11027;51.030;13.812;2022-08-19T01:39:37;13.60;;;12.18;;
21729;SDS011;11027;51.030;13.812;2022-08-19T01:42:03;13.57;;;12.30;;
21729;SDS011;11027;51.030;13.812;2022-08-19T01:44:30;16.45;;;12.40;;
21729;SDS011;11027;51.030;13.812;2022-08-19T01:46:55;14.02;;;12.52;;
21729;SDS011;11027;51.030;13.812;2022-08-19T01:49:22;14.32;;;12.93;;
21729;SDS011;11027;51.030;13.812;2022-08-19T01:51:50;13.80;;;12.40;;
21729;SDS011;11027;51.030;13.812;2022-08-19T01:54:17;14.38;;;12.88;;
21729;SDS011;11027;51.030;13.812;2022-08-19T01:56:43;14.25;;;12.95;;
21729;SDS011;11027;51.030;13.812;2022-08-19T01:59:10;17.27;;;12.88;;
21729;SDS011;11027;51.030;13.812;2022-08-19T02:01:38;14.13;;;12.63;;
21729;SDS011;11027;51.030;13.812;2022-08-19T02:04:04;14.70;;;13.20;;
21729;SDS011;11027;51.030;13.812;2022-08-19T02:06:30;15.50;;;13.90;;
21729;SDS011;11027;51.030;13.812;2022-08-19T02:08:56;16.75;;;14.98;;
21729;SDS011;11027;51.030;13.812;2022-08-19T02:11:22;17.73;;;13.07;;
21729;SDS011;11027;51.030;13.812;2022-08-19T02:13:51;17.67;;;13.23;;
21729;SDS011;11027;51.030;13.812;2022-08-19T02:16:17;14.68;;;12.88;;
21729;SDS011;11027;51.030;13.812;2022-08-19T02:18:42;14.18;;;12.65;;
21729;SDS011;11027;51.030;13.812;2022-08-19T02:21:08;15.05;;;13.20;;
21729;SDS011;11027;51.030;13.812;2022-08-19T02:23:34;14.32;;;12.88;;
21729;SDS011;11027;51.030;13.812;2022-08-19T02:25:59;14.45;;;12.93;;
21729;SDS011;11027;51.030;13.812;2022-08-19T02:28:24;15.80;;;12.75;;
21729;SDS011;11027;51.030;13.812;2022-08-19T02:30:50;14.77;;;12.25;;
21729;SDS011;11027;51.030;13.812;2022-08-19T02:33:15;15.25;;;12.60;;
21729;SDS011;11027;51.030;13.812;2022-08-19T02:35:42;14.25;;;12.77;;
21729;SDS011;11027;51.030;13.812;2022-08-19T02:38:08;16.27;;;13.43;;
21729;SDS011;11027;51.030;13.812;2022-08-19T02:40:53;14.38;;;12.98;;
21729;SDS011;11027;51.030;13.812;2022-08-19T02:43:38;14.15;;;12.65;;
21729;SDS011;11027;51.030;13.812;2022-08-19T02:48:52;14.60;;;13.13;;
21729;SDS011;11027;51.030;13.812;2022-08-19T02:51:20;14.70;;;12.88;;
21729;SDS011;11027;51.030;13.812;2022-08-19T02:53:50;15.75;;;12.98;;
21729;SDS011;11027;51.030;13.812;2022-08-19T02:56:16;17.88;;;12.88;;
21729;SDS011;11027;51.030;13.812;2022-08-19T02:58:42;15.90;;;13.60;;
21729;SDS011;11027;51.030;13.812;2022-08-19T03:01:08;15.27;;;13.20;;
21729;SDS011;11027;51.030;13.812;2022-08-19T03:03:35;15.82;;;13.23;;
21729;SDS011;11027;51.030;13.812;2022-08-19T03:06:09;13.35;;;12.05;;
21729;SDS011;11027;51.030;13.812;2022-08-19T03:08:38;14.38;;;12.93;;
21729;SDS011;11027;51.030;13.812;2022-08-19T03:11:04;17.23;;;13.38;;
21729;SDS011;11027;51.030;13.812;2022-08-19T03:13:29;13.80;;;12.50;;
21729;SDS011;11027;51.030;13.812;2022-08-19T03:15:55;14.35;;;12.82;;
21729;SDS011;11027;51.030;13.812;2022-08-19T03:18:20;13.63;;;12.15;;
21729;SDS011;11027;51.030;13.812;2022-08-19T03:20:47;13.63;;;12.32;;
21729;SDS011;11027;51.030;13.812;2022-08-19T03:23:15;14.30;;;12.82;;
21729;SDS011;11027;51.030;13.812;2022-08-19T03:25:42;16.08;;;14.57;;
21729;SDS011;11027;51.030;13.812;2022-08-19T03:28:10;19.40;;;13.20;;
21729;SDS011;11027;51.030;13.812;2022-08-19T03:30:36;14.45;;;13.05;;
21729;SDS011;11027;51.030;13.812;2022-08-19T03:33:04;19.92;;;14.07;;
21729;SDS011;11027;51.030;13.812;2022-08-19T03:35:29;14.93;;;13.40;;
21729;SDS011;11027;51.030;13.812;2022-08-19T03:37:54;15.30;;;13.73;;
21729;SDS011;11027;51.030;13.812;2022-08-19T03:40:21;16.30;;;14.32;;
21729;SDS011;11027;51.030;13.812;2022-08-19T03:42:46;15.15;;;13.55;;
21729;SDS011;11027;51.030;13.812;2022-08-19T03:45:12;16.25;;;14.43;;
21729;SDS011;11027;51.030;13.812;2022-08-19T03:47:37;15.80;;;14.30;;
21729;SDS011;11027;51.030;13.812;2022-08-19T03:50:03;16.08;;;14.60;;
21729;SDS011;11027;51.030;13.812;2022-08-19T03:52:29;15.57;;;14.07;;
21729;SDS011;11027;51.030;13.812;2022-08-19T03:54:55;16.65;;;14.48;;
21729;SDS011;11027;51.030;13.812;2022-08-19T03:57:20;16.10;;;14.13;;
21729;SDS011;11027;51.030;13.812;2022-08-19T03:59:45;16.33;;;14.27;;
21729;SDS011;11027;51.030;13.812;2022-08-19T04:02:11;18.77;;;14.82;;
21729;SDS011;11027;51.030;13.812;2022-08-19T04:04:40;15.27;;;13.70;;
21729;SDS011;11027;51.030;13.812;2022-08-19T04:07:08;15.50;;;14.00;;
21729;SDS011;11027;51.030;13.812;2022-08-19T04:09:34;16.30;;;14.70;;
21729;SDS011;11027;51.030;13.812;2022-08-19T04:12:01;16.30;;;14.70;;
21729;SDS011;11027;51.030;13.812;2022-08-19T04:14:30;19.20;;;14.50;;
21729;SDS011;11027;51.030;13.812;2022-08-19T04:16:57;16.92;;;14.82;;
21729;SDS011;11027;51.030;13.812;2022-08-19T04:19:24;16.52;;;14.30;;
21729;SDS011;11027;51.030;13.812;2022-08-19T04:21:51;16.08;;;14.25;;
21729;SDS011;11027;51.030;13.812;2022-08-19T04:24:18;16.88;;;15.18;;
21729;SDS011;11027;51.030;13.812;2022-08-19T04:26:44;17.60;;;15.68;;
21729;SDS011;11027;51.030;13.812;2022-08-19T04:29:13;17.73;;;15.73;;
21729;SDS011;11027;51.030;13.812;2022-08-19T04:31:42;18.90;;;15.73;;
21729;SDS011;11027;51.030;13.812;2022-08-19T04:34:09;17.50;;;14.75;;
21729;SDS011;11027;51.030;13.812;2022-08-19T04:36:37;20.70;;;16.23;;
21729;SDS011;11027;51.030;13.812;2022-08-19T04:39:08;18.52;;;16.02;;
21729;SDS011;11027;51.030;13.812;2022-08-19T04:41:36;20.83;;;17.00;;
21729;SDS011;11027;51.030;13.812;2022-08-19T04:44:20;18.50;;;16.60;;
21729;SDS011;11027;51.030;13.812;2022-08-19T04:46:47;24.20;;;17.25;;
21729;SDS011;11027;51.030;13.812;2022-08-19T04:49:14;17.77;;;15.65;;
21729;SDS011;11027;51.030;13.812;2022-08-19T04:51:42;17.95;;;16.13;;
21729;SDS011;11027;51.030;13.812;2022-08-19T04:54:09;19.17;;;15.93;;
21729;SDS011;11027;51.030;13.812;2022-08-19T04:56:34;18.60;;;16.45;;
21729;SDS011;11027;51.030;13.812;2022-08-19T04:59:00;21.75;;;16.33;;
21729;SDS011;11027;51.030;13.812;2022-08-19T05:01:28;17.33;;;15.38;;
21729;SDS011;11027;51.030;13.812;2022-08-19T05:03:57;18.58;;;16.65;;
21729;SDS011;11027;51.030;13.812;2022-08-19T05:06:23;18.10;;;16.20;;
21729;SDS011;11027;51.030;13.812;2022-08-19T05:08:49;22.90;;;16.48;;
21729;SDS011;11027;51.030;13.812;2022-08-19T05:11:48;19.90;;;16.75;;
21729;SDS011;11027;51.030;13.812;2022-08-19T05:14:07;20.33;;;15.73;;
21729;SDS011;11027;51.030;13.812;2022-08-19T05:16:32;18.92;;;16.23;;
21729;SDS011;11027;51.030;13.812;2022-08-19T05:18:58;17.55;;;15.68;;
21729;SDS011;11027;51.030;13.812;2022-08-19T05:21:43;17.83;;;15.93;;
21729;SDS011;11027;51.030;13.812;2022-08-19T05:24:28;19.83;;;16.13;;
21729;SDS011;11027;51.030;13.812;2022-08-19T05:26:54;18.15;;;15.63;;
21729;SDS011;11027;51.030;13.812;2022-08-19T05:29:22;18.67;;;16.77;;
21729;SDS011;11027;51.030;13.812;2022-08-19T05:31:48;18.33;;;16.42;;
21729;SDS011;11027;51.030;13.812;2022-08-19T05:34:15;18.35;;;16.17;;
21729;SDS011;11027;51.030;13.812;2022-08-19T05:36:42;20.55;;;16.48;;
21729;SDS011;11027;51.030;13.812;2022-08-19T05:39:11;20.27;;;17.33;;
21729;SDS011;11027;51.030;13.812;2022-08-19T05:41:49;19.45;;;17.38;;
21729;SDS011;11027;51.030;13.812;2022-08-19T05:44:18;21.15;;;16.67;;
21729;SDS011;11027;51.030;13.812;2022-08-19T05:46:44;18.02;;;16.15;;
21729;SDS011;11027;51.030;13.812;2022-08-19T05:49:13;22.95;;;16.80;;
21729;SDS011;11027;51.030;13.812;2022-08-19T05:51:40;21.65;;;17.95;;
21729;SDS011;11027;51.030;13.812;2022-08-19T05:54:05;19.60;;;17.60;;
21729;SDS011;11027;51.030;13.812;2022-08-19T05:56:32;21.75;;;17.95;;
21729;SDS011;11027;51.030;13.812;2022-08-19T05:59:01;18.67;;;15.75;;
21729;SDS011;11027;51.030;13.812;2022-08-19T06:01:27;17.88;;;16.00;;
21729;SDS011;11027;51.030;13.812;2022-08-19T06:03:52;18.13;;;15.57;;
21729;SDS011;11027;51.030;13.812;2022-08-19T06:06:18;20.50;;;16.70;;
21729;SDS011;11027;51.030;13.812;2022-08-19T06:08:44;18.65;;;16.33;;
21729;SDS011;11027;51.030;13.812;2022-08-19T06:13:40;24.85;;;15.93;;
21729;SDS011;11027;51.030;13.812;2022-08-19T06:16:05;18.52;;;16.63;;
21729;SDS011;11027;51.030;13.812;2022-08-19T06:18:30;16.73;;;14.73;;
21729;SDS011;11027;51.030;13.812;2022-08-19T06:20:56;18.02;;;14.77;;
21729;SDS011;11027;51.030;13.812;2022-08-19T06:23:21;14.18;;;12.77;;
21729;SDS011;11027;51.030;13.812;2022-08-19T06:25:46;14.32;;;12.90;;
21729;SDS011;11027;51.030;13.812;2022-08-19T06:28:12;15.07;;;12.55;;
21729;SDS011;11027;51.030;13.812;2022-08-19T06:30:37;12.82;;;11.63;;
21729;SDS011;11027;51.030;13.812;2022-08-19T06:33:02;12.93;;;11.60;;
21729;SDS011;11027;51.030;13.812;2022-08-19T06:35:28;16.08;;;12.15;;
21729;SDS011;11027;51.030;13.812;2022-08-19T06:37:54;13.63;;;10.98;;
21729;SDS011;11027;51.030;13.812;2022-08-19T06:40:19;13.30;;;11.90;;
21729;SDS011;11027;51.030;13.812;2022-08-19T06:42:45;11.98;;;10.75;;
21729;SDS011;11027;51.030;13.812;2022-08-19T06:45:10;12.15;;;10.27;;
21729;SDS011;11027;51.030;13.812;2022-08-19T06:47:35;12.93;;;10.90;;
21729;SDS011;11027;51.030;13.812;2022-08-19T06:50:01;14.25;;;10.07;;
21729;SDS011;11027;51.030;13.812;2022-08-19T06:52:30;11.00;;;9.90;;
21729;SDS011;11027;51.030;13.812;2022-08-19T06:54:57;11.10;;;10.00;;
21729;SDS011;11027;51.030;13.812;2022-08-19T06:57:23;10.73;;;9.60;;
21729;SDS011;11027;51.030;13.812;2022-08-19T06:59:49;11.00;;;9.95;;
21729;SDS011;11027;51.030;13.812;2022-08-19T07:02:14;12.27;;;10.10;;
21729;SDS011;11027;51.030;13.812;2022-08-19T07:04:39;13.85;;;10.20;;
21729;SDS011;11027;51.030;13.812;2022-08-19T07:07:06;12.18;;;10.77;;
21729;SDS011;11027;51.030;13.812;2022-08-19T07:09:33;11.80;;;10.27;;
21729;SDS011;11027;51.030;13.812;2022-08-19T07:12:02;13.50;;;10.98;;
21729;SDS011;11027;51.030;13.812;2022-08-19T07:14:29;11.15;;;9.77;;
21729;SDS011;11027;51.030;13.812;2022-08-19T07:16:56;14.30;;;10.55;;
21729;SDS011;11027;51.030;13.812;2022-08-19T07:19:22;11.70;;;10.07;;
21729;SDS011;11027;51.030;13.812;2022-08-19T07:21:50;14.00;;;10.25;;
21729;SDS011;11027;51.030;13.812;2022-08-19T07:24:17;12.05;;;10.23;;
21729;SDS011;11027;51.030;13.812;2022-08-19T07:26:44;14.20;;;10.70;;
21729;SDS011;11027;51.030;13.812;2022-08-19T07:29:10;19.05;;;10.73;;
21729;SDS011;11027;51.030;13.812;2022-08-19T07:31:36;14.13;;;10.65;;
21729;SDS011;11027;51.030;13.812;2022-08-19T07:34:05;12.95;;;11.35;;
21729;SDS011;11027;51.030;13.812;2022-08-19T07:36:33;16.57;;;12.40;;
21729;SDS011;11027;51.030;13.812;2022-08-19T07:39:03;13.15;;;11.77;;
21729;SDS011;11027;51.030;13.812;2022-08-19T07:41:32;13.10;;;11.85;;
21729;SDS011;11027;51.030;13.812;2022-08-19T07:43:58;18.70;;;11.93;;
21729;SDS011;11027;51.030;13.812;2022-08-19T07:46:28;18.10;;;12.83;;
21729;SDS011;11027;51.030;13.812;2022-08-19T07:48:56;18.20;;;12.63;;
21729;SDS011;11027;51.030;13.812;2022-08-19T07:51:21;14.85;;;13.20;;
21729;SDS011;11027;51.030;13.812;2022-08-19T07:53:47;15.07;;;12.43;;
21729;SDS011;11027;51.030;13.812;2022-08-19T07:56:14;16.73;;;13.38;;
21729;SDS011;11027;51.030;13.812;2022-08-19T07:58:42;17.05;;;12.88;;
21729;SDS011;11027;51.030;13.812;2022-08-19T08:01:10;14.40;;;13.00;;
21729;SDS011;11027;51.030;13.812;2022-08-19T08:03:37;15.38;;;12.38;;
21729;SDS011;11027;51.030;13.812;2022-08-19T08:06:21;13.98;;;12.57;;
21729;SDS011;11027;51.030;13.812;2022-08-19T08:09:06;18.10;;;12.38;;
21729;SDS011;11027;51.030;13.812;2022-08-19T08:12:29;18.60;;;13.68;;
21729;SDS011;11027;51.030;13.812;2022-08-19T08:14:47;15.43;;;13.83;;
21729;SDS011;11027;51.030;13.812;2022-08-19T08:17:15;17.75;;;14.45;;
21729;SDS011;11027;51.030;13.812;2022-08-19T08:19:42;15.68;;;14.05;;
21729;SDS011;11027;51.030;13.812;2022-08-19T08:22:09;15.57;;;13.77;;
21729;SDS011;11027;51.030;13.812;2022-08-19T08:25:06;17.98;;;14.50;;
21729;SDS011;11027;51.030;13.812;2022-08-19T08:27:40;20.27;;;15.45;;
21729;SDS011;11027;51.030;13.812;2022-08-19T08:30:08;19.05;;;14.63;;
21729;SDS011;11027;51.030;13.812;2022-08-19T08:32:42;15.32;;;13.73;;
21729;SDS011;11027;51.030;13.812;2022-08-19T08:35:09;16.60;;;14.75;;
21729;SDS011;11027;51.030;13.812;2022-08-19T08:37:37;17.58;;;14.48;;
21729;SDS011;11027;51.030;13.812;2022-08-19T08:40:05;17.42;;;13.43;;
21729;SDS011;11027;51.030;13.812;2022-08-19T08:42:43;16.17;;;14.15;;
21729;SDS011;11027;51.030;13.812;2022-08-19T08:45:32;17.85;;;14.57;;
21729;SDS011;11027;51.030;13.812;2022-08-19T08:50:42;13.25;;;11.93;;
21729;SDS011;11027;51.030;13.812;2022-08-19T08:53:16;13.73;;;12.43;;
21729;SDS011;11027;51.030;13.812;2022-08-19T08:55:43;14.27;;;12.60;;
21729;SDS011;11027;51.030;13.812;2022-08-19T08:58:11;15.30;;;12.90;;
21729;SDS011;11027;51.030;13.812;2022-08-19T09:00:44;14.48;;;12.85;;
21729;SDS011;11027;51.030;13.812;2022-08-19T09:03:19;14.03;;;12.53;;
21729;SDS011;11027;51.030;13.812;2022-08-19T09:05:59;13.95;;;11.30;;
21729;SDS011;11027;51.030;13.812;2022-08-19T09:10:57;11.37;;;9.83;;
21729;SDS011;11027;51.030;13.812;2022-08-19T09:16:16;11.57;;;10.47;;
21729;SDS011;11027;51.030;13.812;2022-08-19T09:18:45;10.38;;;9.48;;
21729;SDS011;11027;51.030;13.812;2022-08-19T09:21:18;10.65;;;9.52;;
21729;SDS011;11027;51.030;13.812;2022-08-19T09:23:47;11.88;;;9.70;;
21729;SDS011;11027;51.030;13.812;2022-08-19T09:26:15;10.98;;;9.88;;
21729;SDS011;11027;51.030;13.812;2022-08-19T09:28:43;10.50;;;9.38;;
21729;SDS011;11027;51.030;13.812;2022-08-19T09:31:10;12.40;;;10.38;;
21729;SDS011;11027;51.030;13.812;2022-08-19T09:33:37;11.20;;;10.20;;
21729;SDS011;11027;51.030;13.812;2022-08-19T09:36:04;11.32;;;10.23;;
21729;SDS011;11027;51.030;13.812;2022-08-19T09:38:34;12.50;;;11.30;;
21729;SDS011;11027;51.030;13.812;2022-08-19T09:41:04;13.88;;;10.95;;
21729;SDS011;11027;51.030;13.812;2022-08-19T09:43:31;12.00;;;10.90;;
21729;SDS011;11027;51.030;13.812;2022-08-19T09:45:58;12.82;;;10.57;;
21729;SDS011;11027;51.030;13.812;2022-08-19T09:48:25;15.88;;;10.73;;
21729;SDS011;11027;51.030;13.812;2022-08-19T09:50:50;12.80;;;10.45;;
21729;SDS011;11027;51.030;13.812;2022-08-19T09:53:16;12.07;;;10.35;;
21729;SDS011;11027;51.030;13.812;2022-08-19T09:55:42;11.65;;;10.55;;
21729;SDS011;11027;51.030;13.812;2022-08-19T09:58:08;11.35;;;10.27;;
21729;SDS011;11027;51.030;13.812;2022-08-19T10:00:33;12.07;;;10.80;;
21729;SDS011;11027;51.030;13.812;2022-08-19T10:02:59;11.48;;;10.10;;
21729;SDS011;11027;51.030;13.812;2022-08-19T10:05:24;11.57;;;10.35;;
21729;SDS011;11027;51.030;13.812;2022-08-19T10:08:09;11.32;;;10.18;;
21729;SDS011;11027;51.030;13.812;2022-08-19T10:10:36;11.38;;;10.27;;
21729;SDS011;11027;51.030;13.812;2022-08-19T10:13:02;13.88;;;10.93;;
21729;SDS011;11027;51.030;13.812;2022-08-19T10:15:28;10.77;;;9.77;;
21729;SDS011;11027;51.030;13.812;2022-08-19T10:17:54;11.02;;;9.85;;
21729;SDS011;11027;51.030;13.812;2022-08-19T10:20:19;11.07;;;9.98;;
21729;SDS011;11027;51.030;13.812;2022-08-19T10:22:45;10.68;;;9.25;;
21729;SDS011;11027;51.030;13.812;2022-08-19T10:25:10;10.23;;;8.75;;
21729;SDS011;11027;51.030;13.812;2022-08-19T10:27:35;9.68;;;8.48;;
21729;SDS011;11027;51.030;13.812;2022-08-19T10:30:02;10.57;;;9.43;;
21729;SDS011;11027;51.030;13.812;2022-08-19T10:32:28;11.27;;;8.60;;
21729;SDS011;11027;51.030;13.812;2022-08-19T10:34:54;9.18;;;8.13;;
21729;SDS011;11027;51.030;13.812;2022-08-19T10:37:21;9.15;;;8.35;;
21729;SDS011;11027;51.030;13.812;2022-08-19T10:39:46;9.18;;;8.15;;
21729;SDS011;11027;51.030;13.812;2022-08-19T10:42:12;7.85;;;7.00;;
21729;SDS011;11027;51.030;13.812;2022-08-19T10:44:38;9.63;;;7.10;;
21729;SDS011;11027;51.030;13.812;2022-08-19T10:47:04;7.43;;;6.57;;
21729;SDS011;11027;51.030;13.812;2022-08-19T10:49:30;6.40;;;5.90;;
21729;SDS011;11027;51.030;13.812;2022-08-19T10:51:57;6.90;;;6.20;;
21729;SDS011;11027;51.030;13.812;2022-08-19T10:54:40;10.00;;;6.10;;
21729;SDS011;11027;51.030;13.812;2022-08-19T10:57:24;6.65;;;6.05;;
21729;SDS011;11027;51.030;13.812;2022-08-19T10:59:54;7.20;;;6.50;;
21729;SDS011;11027;51.030;13.812;2022-08-19T11:02:20;7.47;;;6.78;;
21729;SDS011;11027;51.030;13.812;2022-08-19T11:04:45;7.38;;;6.68;;
21729;SDS011;11027;51.030;13.812;2022-08-19T11:07:11;7.32;;;6.63;;
21729;SDS011;11027;51.030;13.812;2022-08-19T11:09:38;8.80;;;7.28;;
21729;SDS011;11027;51.030;13.812;2022-08-19T11:12:05;6.10;;;5.60;;
21729;SDS011;11027;51.030;13.812;2022-08-19T11:14:31;6.07;;;5.50;;
21729;SDS011;11027;51.030;13.812;2022-08-19T11:16:58;5.50;;;5.00;;
21729;SDS011;11027;51.030;13.812;2022-08-19T11:19:23;5.15;;;4.75;;
21729;SDS011;11027;51.030;13.812;2022-08-19T11:21:49;5.93;;;5.43;;
21729;SDS011;11027;51.030;13.812;2022-08-19T11:24:20;5.40;;;4.90;;
21729;SDS011;11027;51.030;13.812;2022-08-19T11:26:48;7.80;;;5.97;;
21729;SDS011;11027;51.030;13.812;2022-08-19T11:29:14;7.60;;;6.25;;
21729;SDS011;11027;51.030;13.812;2022-08-19T11:31:44;6.28;;;5.32;;
21729;SDS011;11027;51.030;13.812;2022-08-19T11:34:12;5.97;;;5.13;;
21729;SDS011;11027;51.030;13.812;2022-08-19T11:36:41;6.30;;;5.80;;
21729;SDS011;11027;51.030;13.812;2022-08-19T11:39:10;6.65;;;5.93;;
21729;SDS011;11027;51.030;13.812;2022-08-19T11:41:37;8.55;;;6.55;;
21729;SDS011;11027;51.030;13.812;2022-08-19T11:44:02;10.35;;;6.88;;
21729;SDS011;11027;51.030;13.812;2022-08-19T11:46:29;11.05;;;7.03;;
21729;SDS011;11027;51.030;13.812;2022-08-19T11:48:59;9.20;;;7.97;;
21729;SDS011;11027;51.030;13.812;2022-08-19T11:51:26;7.93;;;7.20;;
21729;SDS011;11027;51.030;13.812;2022-08-19T11:53:53;9.52;;;7.53;;
21729;SDS011;11027;51.030;13.812;2022-08-19T11:56:20;8.90;;;8.05;;
21729;SDS011;11027;51.030;13.812;2022-08-19T11:58:46;10.68;;;8.10;;
21729;SDS011;11027;51.030;13.812;2022-08-19T12:01:13;9.68;;;8.68;;
21729;SDS011;11027;51.030;13.812;2022-08-19T12:03:41;10.10;;;8.43;;
21729;SDS011;11027;51.030;13.812;2022-08-19T12:06:09;9.75;;;8.75;;
21729;SDS011;11027;51.030;13.812;2022-08-19T12:08:37;9.55;;;8.00;;
21729;SDS011;11027;51.030;13.812;2022-08-19T12:11:03;8.90;;;8.02;;
21729;SDS011;11027;51.030;13.812;2022-08-19T12:13:28;9.48;;;8.27;;
21729;SDS011;11027;51.030;13.812;2022-08-19T12:15:55;9.23;;;8.32;;
21729;SDS011;11027;51.030;13.812;2022-08-19T12:18:21;16.30;;;9.10;;
21729;SDS011;11027;51.030;13.812;2022-08-19T12:20:46;9.02;;;8.20;;
21729;SDS011;11027;51.030;13.812;2022-08-19T12:23:12;15.25;;;13.73;;
21729;SDS011;11027;51.030;13.812;2022-08-19T12:25:43;11.13;;;10.02;;
21729;SDS011;11027;51.030;13.812;2022-08-19T12:28:16;12.07;;;10.00;;
21729;SDS011;11027;51.030;13.812;2022-08-19T12:30:42;15.45;;;12.60;;
21729;SDS011;11027;51.030;13.812;2022-08-19T12:33:08;15.27;;;12.70;;
21729;SDS011;11027;51.030;13.812;2022-08-19T12:35:33;14.90;;;13.40;;
21729;SDS011;11027;51.030;13.812;2022-08-19T12:38:11;17.23;;;14.50;;
21729;SDS011;11027;51.030;13.812;2022-08-19T12:40:37;15.85;;;14.15;;
21729;SDS011;11027;51.030;13.812;2022-08-19T12:43:03;18.33;;;15.40;;
21729;SDS011;11027;51.030;13.812;2022-08-19T12:45:29;17.20;;;15.05;;
21729;SDS011;11027;51.030;13.812;2022-08-19T12:47:54;18.70;;;16.70;;
21729;SDS011;11027;51.030;13.812;2022-08-19T12:50:19;20.75;;;16.60;;
21729;SDS011;11027;51.030;13.812;2022-08-19T12:52:46;19.08;;;16.63;;
21729;SDS011;11027;51.030;13.812;2022-08-19T12:55:13;24.02;;;17.90;;
21729;SDS011;11027;51.030;13.812;2022-08-19T12:57:38;19.45;;;16.52;;
21729;SDS011;11027;51.030;13.812;2022-08-19T13:02:36;18.42;;;16.48;;
21729;SDS011;11027;51.030;13.812;2022-08-19T13:05:03;21.58;;;17.25;;
21729;SDS011;11027;51.030;13.812;2022-08-19T13:07:29;21.13;;;17.15;;
21729;SDS011;11027;51.030;13.812;2022-08-19T13:09:56;18.30;;;15.77;;
21729;SDS011;11027;51.030;13.812;2022-08-19T13:12:22;19.55;;;15.93;;
21729;SDS011;11027;51.030;13.812;2022-08-19T13:14:49;19.65;;;15.90;;
21729;SDS011;11027;51.030;13.812;2022-08-19T13:17:15;17.05;;;15.25;;
21729;SDS011;11027;51.030;13.812;2022-08-19T13:19:41;16.30;;;14.68;;
21729;SDS011;11027;51.030;13.812;2022-08-19T13:22:06;16.83;;;14.73;;
21729;SDS011;11027;51.030;13.812;2022-08-19T13:24:32;16.88;;;15.05;;
21729;SDS011;11027;51.030;13.812;2022-08-19T13:26:58;19.17;;;14.98;;
21729;SDS011;11027;51.030;13.812;2022-08-19T13:29:24;18.88;;;15.27;;
21729;SDS011;11027;51.030;13.812;2022-08-19T13:32:08;18.95;;;15.68;;
21729;SDS011;11027;51.030;13.812;2022-08-19T13:34:57;19.08;;;17.10;;
21729;SDS011;11027;51.030;13.812;2022-08-19T13:37:22;18.63;;;15.40;;
21729;SDS011;11027;51.030;13.812;2022-08-19T13:40:06;16.95;;;14.93;;
21729;SDS011;11027;51.030;13.812;2022-08-19T13:42:37;18.85;;;16.17;;
21729;SDS011;11027;51.030;13.812;2022-08-19T13:45:03;20.20;;;15.82;;
21729;SDS011;11027;51.030;13.812;2022-08-19T13:47:31;18.10;;;16.30;;
21729;SDS011;11027;51.030;13.812;2022-08-19T13:49:56;17.73;;;15.88;;
21729;SDS011;11027;51.030;13.812;2022-08-19T13:52:22;20.33;;;17.58;;
21729;SDS011;11027;51.030;13.812;2022-08-19T13:54:47;19.42;;;16.63;;
21729;SDS011;11027;51.030;13.812;2022-08-19T13:57:13;20.08;;;17.23;;
21729;SDS011;11027;51.030;13.812;2022-08-19T13:59:39;19.85;;;16.77;;
21729;SDS011;11027;51.030;13.812;2022-08-19T14:02:04;20.30;;;17.98;;
21729;SDS011;11027;51.030;13.812;2022-08-19T14:04:30;19.95;;;17.58;;
21729;SDS011;11027;51.030;13.812;2022-08-19T14:06:55;18.60;;;16.60;;
21729;SDS011;11027;51.030;13.812;2022-08-19T14:09:21;18.25;;;16.35;;
21729;SDS011;11027;51.030;13.812;2022-08-19T14:11:46;21.60;;;18.95;;
21729;SDS011;11027;51.030;13.812;2022-08-19T14:14:11;22.70;;;20.40;;
21729;SDS011;11027;51.030;13.812;2022-08-19T14:16:37;22.58;;;20.00;;
21729;SDS011;11027;51.030;13.812;2022-08-19T14:19:02;23.02;;;19.33;;
21729;SDS011;11027;51.030;13.812;2022-08-19T14:21:28;26.00;;;20.08;;
21729;SDS011;11027;51.030;13.812;2022-08-19T14:23:53;24.60;;;21.02;;
21729;SDS011;11027;51.030;13.812;2022-08-19T14:26:19;24.92;;;21.35;;
21729;SDS011;11027;51.030;13.812;2022-08-19T14:28:46;24.27;;;21.55;;
21729;SDS011;11027;51.030;13.812;2022-08-19T14:31:12;25.48;;;21.98;;
21729;SDS011;11027;51.030;13.812;2022-08-19T14:33:41;26.42;;;22.60;;